sensor_id;sensor_type;location;lat;lon;timestamp;P1;durP1;ratioP1;P2;durP2;ratioP2
6564;SDS011;3316;44.118;27.258;2022-12-31T00:01:12;18.17;;;11.03;;
6564;SDS011;3316;44.118;27.258;2022-12-31T00:03:40;29.17;;;16.33;;
6564;SDS011;3316;44.118;27.258;2022-12-31T00:08:37;26.37;;;14.77;;
6564;SDS011;3316;44.118;27.258;2022-12-31T00:11:03;31.43;;;15.90;;
6564;SDS011;3316;44.118;27.258;2022-12-31T00:13:28;30.93;;;17.73;;
6564;SDS011;3316;44.118;27.258;2022-12-31T00:15:54;19.80;;;11.27;;
6564;SDS011;3316;44.118;27.258;2022-12-31T00:18:19;22.37;;;12.53;;
6564;SDS011;3316;44.118;27.258;2022-12-31T00:20:45;24.53;;;14.93;;
6564;SDS011;3316;44.118;27.258;2022-12-31T00:23:10;15.90;;;9.53;;
6564;SDS011;3316;44.118;27.258;2022-12-31T00:25:36;19.23;;;10.60;;
6564;SDS011;3316;44.118;27.258;2022-12-31T00:28:02;22.57;;;11.60;;
6564;SDS011;3316;44.118;27.258;2022-12-31T00:30:29;23.03;;;13.03;;
6564;SDS011;3316;44.118;27.258;2022-12-31T00:32:54;27.50;;;14.77;;
6564;SDS011;3316;44.118;27.258;2022-12-31T00:35:20;20.87;;;12.17;;
6564;SDS011;3316;44.118;27.258;2022-12-31T00:37:45;16.90;;;10.67;;
6564;SDS011;3316;44.118;27.258;2022-12-31T00:40:11;15.63;;;10.47;;
6564;SDS011;3316;44.118;27.258;2022-12-31T00:42:36;17.93;;;10.83;;
6564;SDS011;3316;44.118;27.258;2022-12-31T00:45:01;17.27;;;10.10;;
6564;SDS011;3316;44.118;27.258;2022-12-31T00:47:27;14.87;;;9.33;;
6564;SDS011;3316;44.118;27.258;2022-12-31T00:49:52;16.23;;;9.83;;
6564;SDS011;3316;44.118;27.258;2022-12-31T00:52:18;22.90;;;11.77;;
6564;SDS011;3316;44.118;27.258;2022-12-31T00:54:44;23.70;;;13.80;;
6564;SDS011;3316;44.118;27.258;2022-12-31T00:57:09;16.00;;;10.03;;
6564;SDS011;3316;44.118;27.258;2022-12-31T00:59:34;18.63;;;9.63;;
6564;SDS011;3316;44.118;27.258;2022-12-31T01:02:00;16.50;;;10.27;;
6564;SDS011;3316;44.118;27.258;2022-12-31T01:04:25;21.00;;;11.60;;
6564;SDS011;3316;44.118;27.258;2022-12-31T01:06:51;12.67;;;7.63;;
6564;SDS011;3316;44.118;27.258;2022-12-31T01:09:16;13.33;;;7.90;;
6564;SDS011;3316;44.118;27.258;2022-12-31T01:11:42;12.40;;;8.37;;
6564;SDS011;3316;44.118;27.258;2022-12-31T01:14:09;12.47;;;8.43;;
6564;SDS011;3316;44.118;27.258;2022-12-31T01:16:38;16.10;;;9.10;;
6564;SDS011;3316;44.118;27.258;2022-12-31T01:19:10;14.70;;;9.80;;
6564;SDS011;3316;44.118;27.258;2022-12-31T01:21:43;16.33;;;10.40;;
6564;SDS011;3316;44.118;27.258;2022-12-31T01:24:10;20.20;;;13.27;;
6564;SDS011;3316;44.118;27.258;2022-12-31T01:26:36;26.83;;;15.83;;
6564;SDS011;3316;44.118;27.258;2022-12-31T01:29:03;26.73;;;15.63;;
6564;SDS011;3316;44.118;27.258;2022-12-31T01:31:30;30.67;;;16.83;;
6564;SDS011;3316;44.118;27.258;2022-12-31T01:33:58;29.70;;;18.17;;
6564;SDS011;3316;44.118;27.258;2022-12-31T01:36:25;35.47;;;19.47;;
6564;SDS011;3316;44.118;27.258;2022-12-31T01:38:53;36.80;;;21.10;;
6564;SDS011;3316;44.118;27.258;2022-12-31T01:41:27;57.43;;;30.00;;
6564;SDS011;3316;44.118;27.258;2022-12-31T01:43:55;57.93;;;32.20;;
6564;SDS011;3316;44.118;27.258;2022-12-31T01:49:16;35.53;;;20.97;;
6564;SDS011;3316;44.118;27.258;2022-12-31T01:51:48;32.33;;;20.47;;
6564;SDS011;3316;44.118;27.258;2022-12-31T01:54:19;34.07;;;20.17;;
6564;SDS011;3316;44.118;27.258;2022-12-31T01:56:46;33.37;;;19.33;;
6564;SDS011;3316;44.118;27.258;2022-12-31T01:59:15;31.87;;;19.93;;
6564;SDS011;3316;44.118;27.258;2022-12-31T02:01:42;34.60;;;19.47;;
6564;SDS011;3316;44.118;27.258;2022-12-31T02:04:11;33.00;;;18.93;;
6564;SDS011;3316;44.118;27.258;2022-12-31T02:06:43;35.67;;;20.67;;
6564;SDS011;3316;44.118;27.258;2022-12-31T02:09:12;34.10;;;20.33;;
6564;SDS011;3316;44.118;27.258;2022-12-31T02:11:38;44.13;;;26.63;;
6564;SDS011;3316;44.118;27.258;2022-12-31T02:14:14;45.33;;;24.43;;
6564;SDS011;3316;44.118;27.258;2022-12-31T02:22:22;42.20;;;24.97;;
6564;SDS011;3316;44.118;27.258;2022-12-31T02:25:12;45.07;;;24.87;;
6564;SDS011;3316;44.118;27.258;2022-12-31T02:30:30;45.33;;;25.17;;
6564;SDS011;3316;44.118;27.258;2022-12-31T02:33:06;45.07;;;25.47;;
6564;SDS011;3316;44.118;27.258;2022-12-31T02:35:45;47.93;;;26.70;;
6564;SDS011;3316;44.118;27.258;2022-12-31T02:38:23;46.27;;;25.20;;
6564;SDS011;3316;44.118;27.258;2022-12-31T02:40:54;48.37;;;26.93;;
6564;SDS011;3316;44.118;27.258;2022-12-31T02:43:20;48.70;;;26.87;;
6564;SDS011;3316;44.118;27.258;2022-12-31T02:45:46;45.37;;;25.97;;
6564;SDS011;3316;44.118;27.258;2022-12-31T02:56:15;34.97;;;20.20;;
6564;SDS011;3316;44.118;27.258;2022-12-31T03:01:42;34.10;;;18.93;;
6564;SDS011;3316;44.118;27.258;2022-12-31T03:04:29;25.93;;;16.93;;
6564;SDS011;3316;44.118;27.258;2022-12-31T03:09:54;29.07;;;16.33;;
6564;SDS011;3316;44.118;27.258;2022-12-31T03:12:21;25.87;;;15.17;;
6564;SDS011;3316;44.118;27.258;2022-12-31T03:15:09;30.63;;;17.00;;
6564;SDS011;3316;44.118;27.258;2022-12-31T03:17:49;38.87;;;20.63;;
6564;SDS011;3316;44.118;27.258;2022-12-31T03:20:17;69.90;;;39.73;;
6564;SDS011;3316;44.118;27.258;2022-12-31T03:23:03;48.47;;;28.20;;
6564;SDS011;3316;44.118;27.258;2022-12-31T03:25:30;30.33;;;19.37;;
6564;SDS011;3316;44.118;27.258;2022-12-31T03:28:15;29.53;;;16.37;;
6564;SDS011;3316;44.118;27.258;2022-12-31T03:30:44;30.10;;;16.97;;
6564;SDS011;3316;44.118;27.258;2022-12-31T03:33:11;29.87;;;18.20;;
6564;SDS011;3316;44.118;27.258;2022-12-31T03:35:37;28.53;;;18.03;;
6564;SDS011;3316;44.118;27.258;2022-12-31T03:38:04;29.40;;;17.30;;
6564;SDS011;3316;44.118;27.258;2022-12-31T03:40:30;27.77;;;16.50;;
6564;SDS011;3316;44.118;27.258;2022-12-31T03:42:59;31.80;;;17.43;;
6564;SDS011;3316;44.118;27.258;2022-12-31T03:45:24;29.60;;;18.20;;
6564;SDS011;3316;44.118;27.258;2022-12-31T03:47:50;27.33;;;16.40;;
6564;SDS011;3316;44.118;27.258;2022-12-31T03:50:16;28.50;;;17.00;;
6564;SDS011;3316;44.118;27.258;2022-12-31T03:52:43;28.83;;;17.60;;
6564;SDS011;3316;44.118;27.258;2022-12-31T03:55:09;29.20;;;17.93;;
6564;SDS011;3316;44.118;27.258;2022-12-31T03:57:35;34.13;;;19.07;;
6564;SDS011;3316;44.118;27.258;2022-12-31T04:00:01;31.40;;;19.87;;
6564;SDS011;3316;44.118;27.258;2022-12-31T04:02:28;31.23;;;18.47;;
6564;SDS011;3316;44.118;27.258;2022-12-31T04:04:53;52.00;;;26.73;;
6564;SDS011;3316;44.118;27.258;2022-12-31T04:07:19;63.20;;;31.53;;
6564;SDS011;3316;44.118;27.258;2022-12-31T04:09:44;97.73;;;47.17;;
6564;SDS011;3316;44.118;27.258;2022-12-31T04:12:10;46.33;;;27.97;;
6564;SDS011;3316;44.118;27.258;2022-12-31T04:14:35;32.23;;;20.13;;
6564;SDS011;3316;44.118;27.258;2022-12-31T04:17:00;34.70;;;21.50;;
6564;SDS011;3316;44.118;27.258;2022-12-31T04:19:26;38.40;;;22.00;;
6564;SDS011;3316;44.118;27.258;2022-12-31T04:21:51;57.33;;;28.47;;
6564;SDS011;3316;44.118;27.258;2022-12-31T04:24:17;43.40;;;24.27;;
6564;SDS011;3316;44.118;27.258;2022-12-31T04:26:42;40.63;;;22.63;;
6564;SDS011;3316;44.118;27.258;2022-12-31T04:29:08;35.63;;;18.93;;
6564;SDS011;3316;44.118;27.258;2022-12-31T04:31:34;30.07;;;17.23;;
6564;SDS011;3316;44.118;27.258;2022-12-31T04:33:59;39.30;;;19.40;;
6564;SDS011;3316;44.118;27.258;2022-12-31T04:36:25;55.37;;;35.20;;
6564;SDS011;3316;44.118;27.258;2022-12-31T04:38:50;50.80;;;32.77;;
6564;SDS011;3316;44.118;27.258;2022-12-31T04:41:16;65.27;;;36.30;;
6564;SDS011;3316;44.118;27.258;2022-12-31T04:43:42;48.47;;;26.87;;
6564;SDS011;3316;44.118;27.258;2022-12-31T04:46:12;40.80;;;25.17;;
6564;SDS011;3316;44.118;27.258;2022-12-31T04:48:39;39.37;;;20.40;;
6564;SDS011;3316;44.118;27.258;2022-12-31T04:51:04;48.77;;;25.97;;
6564;SDS011;3316;44.118;27.258;2022-12-31T04:53:30;42.93;;;24.07;;
6564;SDS011;3316;44.118;27.258;2022-12-31T04:55:55;43.97;;;24.47;;
6564;SDS011;3316;44.118;27.258;2022-12-31T04:58:21;47.60;;;26.23;;
6564;SDS011;3316;44.118;27.258;2022-12-31T05:00:47;51.60;;;31.57;;
6564;SDS011;3316;44.118;27.258;2022-12-31T05:03:15;55.50;;;30.77;;
6564;SDS011;3316;44.118;27.258;2022-12-31T05:05:41;62.53;;;35.90;;
6564;SDS011;3316;44.118;27.258;2022-12-31T05:08:10;70.67;;;38.97;;
6564;SDS011;3316;44.118;27.258;2022-12-31T05:10:35;55.37;;;30.80;;
6564;SDS011;3316;44.118;27.258;2022-12-31T05:13:01;42.87;;;24.50;;
6564;SDS011;3316;44.118;27.258;2022-12-31T05:15:27;51.67;;;27.30;;
6564;SDS011;3316;44.118;27.258;2022-12-31T05:17:52;89.60;;;43.80;;
6564;SDS011;3316;44.118;27.258;2022-12-31T05:20:18;113.13;;;52.70;;
6564;SDS011;3316;44.118;27.258;2022-12-31T05:22:43;96.13;;;52.23;;
6564;SDS011;3316;44.118;27.258;2022-12-31T05:25:09;105.23;;;52.90;;
6564;SDS011;3316;44.118;27.258;2022-12-31T05:27:34;105.87;;;53.13;;
6564;SDS011;3316;44.118;27.258;2022-12-31T05:30:01;87.30;;;48.63;;
6564;SDS011;3316;44.118;27.258;2022-12-31T05:32:28;68.70;;;38.47;;
6564;SDS011;3316;44.118;27.258;2022-12-31T05:34:53;76.43;;;41.50;;
6564;SDS011;3316;44.118;27.258;2022-12-31T05:37:19;49.23;;;27.30;;
6564;SDS011;3316;44.118;27.258;2022-12-31T05:39:44;83.97;;;46.07;;
6564;SDS011;3316;44.118;27.258;2022-12-31T05:42:09;84.80;;;43.83;;
6564;SDS011;3316;44.118;27.258;2022-12-31T05:44:35;83.20;;;44.33;;
6564;SDS011;3316;44.118;27.258;2022-12-31T05:47:00;57.97;;;30.77;;
6564;SDS011;3316;44.118;27.258;2022-12-31T05:49:26;45.17;;;24.90;;
6564;SDS011;3316;44.118;27.258;2022-12-31T05:51:51;36.63;;;20.73;;
6564;SDS011;3316;44.118;27.258;2022-12-31T05:54:16;47.53;;;26.50;;
6564;SDS011;3316;44.118;27.258;2022-12-31T05:56:42;38.23;;;24.20;;
6564;SDS011;3316;44.118;27.258;2022-12-31T05:59:07;55.47;;;26.90;;
6564;SDS011;3316;44.118;27.258;2022-12-31T06:01:33;30.17;;;19.33;;
6564;SDS011;3316;44.118;27.258;2022-12-31T06:03:58;38.80;;;23.63;;
6564;SDS011;3316;44.118;27.258;2022-12-31T06:06:24;40.80;;;23.60;;
6564;SDS011;3316;44.118;27.258;2022-12-31T06:08:50;34.37;;;20.00;;
6564;SDS011;3316;44.118;27.258;2022-12-31T06:11:16;41.20;;;23.40;;
6564;SDS011;3316;44.118;27.258;2022-12-31T06:13:42;67.77;;;37.37;;
6564;SDS011;3316;44.118;27.258;2022-12-31T06:16:08;66.13;;;38.67;;
6564;SDS011;3316;44.118;27.258;2022-12-31T06:18:35;62.20;;;37.73;;
6564;SDS011;3316;44.118;27.258;2022-12-31T06:21:00;45.60;;;24.87;;
6564;SDS011;3316;44.118;27.258;2022-12-31T06:23:26;44.87;;;24.37;;
6564;SDS011;3316;44.118;27.258;2022-12-31T06:25:51;25.30;;;17.17;;
6564;SDS011;3316;44.118;27.258;2022-12-31T06:28:17;18.30;;;11.37;;
6564;SDS011;3316;44.118;27.258;2022-12-31T06:30:42;28.57;;;17.13;;
6564;SDS011;3316;44.118;27.258;2022-12-31T06:33:08;35.33;;;22.90;;
6564;SDS011;3316;44.118;27.258;2022-12-31T06:35:33;36.47;;;21.70;;
6564;SDS011;3316;44.118;27.258;2022-12-31T06:37:59;24.47;;;15.33;;
6564;SDS011;3316;44.118;27.258;2022-12-31T06:40:24;27.07;;;17.53;;
6564;SDS011;3316;44.118;27.258;2022-12-31T06:42:49;33.60;;;19.17;;
6564;SDS011;3316;44.118;27.258;2022-12-31T06:45:15;50.73;;;33.50;;
6564;SDS011;3316;44.118;27.258;2022-12-31T06:47:40;60.03;;;37.93;;
6564;SDS011;3316;44.118;27.258;2022-12-31T06:50:06;54.00;;;34.93;;
6564;SDS011;3316;44.118;27.258;2022-12-31T06:52:32;62.20;;;37.83;;
6564;SDS011;3316;44.118;27.258;2022-12-31T06:54:57;71.07;;;41.10;;
6564;SDS011;3316;44.118;27.258;2022-12-31T06:57:23;71.37;;;38.90;;
6564;SDS011;3316;44.118;27.258;2022-12-31T06:59:49;208.50;;;92.70;;
6564;SDS011;3316;44.118;27.258;2022-12-31T07:02:25;93.93;;;53.13;;
6564;SDS011;3316;44.118;27.258;2022-12-31T07:10:30;99.93;;;54.43;;
6564;SDS011;3316;44.118;27.258;2022-12-31T07:20:43;59.83;;;32.67;;
6564;SDS011;3316;44.118;27.258;2022-12-31T07:23:08;48.23;;;26.23;;
6564;SDS011;3316;44.118;27.258;2022-12-31T07:25:34;36.03;;;20.27;;
6564;SDS011;3316;44.118;27.258;2022-12-31T07:33:24;25.73;;;14.50;;
6564;SDS011;3316;44.118;27.258;2022-12-31T07:44:31;71.67;;;35.20;;
6564;SDS011;3316;44.118;27.258;2022-12-31T07:47:00;80.10;;;31.57;;
6564;SDS011;3316;44.118;27.258;2022-12-31T07:49:28;68.37;;;32.03;;
6564;SDS011;3316;44.118;27.258;2022-12-31T07:51:54;60.27;;;31.27;;
6564;SDS011;3316;44.118;27.258;2022-12-31T07:54:20;22.93;;;12.93;;
6564;SDS011;3316;44.118;27.258;2022-12-31T07:56:46;15.20;;;10.23;;
6564;SDS011;3316;44.118;27.258;2022-12-31T08:13:29;54.63;;;23.55;;
6564;SDS011;3316;44.118;27.258;2022-12-31T08:15:56;47.78;;;23.88;;
6564;SDS011;3316;44.118;27.258;2022-12-31T08:18:23;43.45;;;19.50;;
6564;SDS011;3316;44.118;27.258;2022-12-31T08:20:54;77.75;;;35.05;;
6564;SDS011;3316;44.118;27.258;2022-12-31T08:37:47;25.63;;;16.60;;
6564;SDS011;3316;44.118;27.258;2022-12-31T08:46:20;35.53;;;20.75;;
6564;SDS011;3316;44.118;27.258;2022-12-31T08:48:51;54.88;;;34.83;;
6564;SDS011;3316;44.118;27.258;2022-12-31T08:51:18;45.40;;;24.45;;
6564;SDS011;3316;44.118;27.258;2022-12-31T08:53:47;46.80;;;26.92;;
6564;SDS011;3316;44.118;27.258;2022-12-31T08:56:20;21.70;;;15.20;;
6564;SDS011;3316;44.118;27.258;2022-12-31T09:01:55;12.23;;;7.45;;
6564;SDS011;3316;44.118;27.258;2022-12-31T09:04:46;19.98;;;13.45;;
6564;SDS011;3316;44.118;27.258;2022-12-31T09:07:14;20.30;;;10.43;;
6564;SDS011;3316;44.118;27.258;2022-12-31T09:10:08;13.13;;;8.70;;
6564;SDS011;3316;44.118;27.258;2022-12-31T09:12:49;19.05;;;10.25;;
6564;SDS011;3316;44.118;27.258;2022-12-31T09:17:50;33.42;;;18.42;;
6564;SDS011;3316;44.118;27.258;2022-12-31T09:20:23;26.42;;;13.48;;
6564;SDS011;3316;44.118;27.258;2022-12-31T09:22:57;19.20;;;11.95;;
6564;SDS011;3316;44.118;27.258;2022-12-31T09:25:24;17.77;;;11.25;;
6564;SDS011;3316;44.118;27.258;2022-12-31T09:31:05;13.00;;;9.75;;
6564;SDS011;3316;44.118;27.258;2022-12-31T09:33:50;22.90;;;13.90;;
6564;SDS011;3316;44.118;27.258;2022-12-31T09:36:28;21.08;;;11.73;;
6564;SDS011;3316;44.118;27.258;2022-12-31T09:39:08;23.98;;;15.25;;
6564;SDS011;3316;44.118;27.258;2022-12-31T10:00:52;15.27;;;10.10;;
6564;SDS011;3316;44.118;27.258;2022-12-31T10:09:07;15.10;;;10.45;;
6564;SDS011;3316;44.118;27.258;2022-12-31T10:20:19;23.23;;;14.30;;
6564;SDS011;3316;44.118;27.258;2022-12-31T10:44:44;12.85;;;8.90;;
6564;SDS011;3316;44.118;27.258;2022-12-31T11:07:10;22.95;;;12.80;;
6564;SDS011;3316;44.118;27.258;2022-12-31T11:12:44;22.90;;;13.27;;
6564;SDS011;3316;44.118;27.258;2022-12-31T11:18:26;24.30;;;14.77;;
6564;SDS011;3316;44.118;27.258;2022-12-31T11:26:32;12.85;;;8.95;;
6564;SDS011;3316;44.118;27.258;2022-12-31T11:42:41;9.85;;;8.13;;
6564;SDS011;3316;44.118;27.258;2022-12-31T11:45:21;11.15;;;8.65;;
6564;SDS011;3316;44.118;27.258;2022-12-31T11:56:22;22.13;;;13.75;;
6564;SDS011;3316;44.118;27.258;2022-12-31T11:58:27;16.33;;;10.10;;
6564;SDS011;3316;44.118;27.258;2022-12-31T12:01:03;18.90;;;12.15;;
6564;SDS011;3316;44.118;27.258;2022-12-31T12:03:35;24.60;;;15.60;;
6564;SDS011;3316;44.118;27.258;2022-12-31T12:06:07;19.92;;;12.43;;
6564;SDS011;3316;44.118;27.258;2022-12-31T12:08:37;10.30;;;7.93;;
6564;SDS011;3316;44.118;27.258;2022-12-31T12:11:04;17.40;;;12.25;;
6564;SDS011;3316;44.118;27.258;2022-12-31T12:13:33;18.20;;;11.38;;
6564;SDS011;3316;44.118;27.258;2022-12-31T12:15:59;18.58;;;13.25;;
6564;SDS011;3316;44.118;27.258;2022-12-31T12:18:50;12.05;;;8.85;;
6564;SDS011;3316;44.118;27.258;2022-12-31T12:21:26;15.38;;;8.98;;
6564;SDS011;3316;44.118;27.258;2022-12-31T12:29:07;11.93;;;7.73;;
6564;SDS011;3316;44.118;27.258;2022-12-31T12:31:57;17.20;;;10.50;;
6564;SDS011;3316;44.118;27.258;2022-12-31T12:34:29;22.30;;;14.03;;
6564;SDS011;3316;44.118;27.258;2022-12-31T12:36:59;18.37;;;10.60;;
6564;SDS011;3316;44.118;27.258;2022-12-31T12:39:26;20.53;;;11.30;;
6564;SDS011;3316;44.118;27.258;2022-12-31T12:42:01;27.10;;;14.93;;
6564;SDS011;3316;44.118;27.258;2022-12-31T12:44:28;18.00;;;9.60;;
6564;SDS011;3316;44.118;27.258;2022-12-31T12:46:54;13.17;;;7.93;;
6564;SDS011;3316;44.118;27.258;2022-12-31T12:49:27;14.73;;;7.23;;
6564;SDS011;3316;44.118;27.258;2022-12-31T12:52:04;18.03;;;8.80;;
6564;SDS011;3316;44.118;27.258;2022-12-31T12:57:25;18.50;;;11.87;;
6564;SDS011;3316;44.118;27.258;2022-12-31T13:22:04;21.17;;;13.57;;
6564;SDS011;3316;44.118;27.258;2022-12-31T13:27:36;12.83;;;8.50;;
6564;SDS011;3316;44.118;27.258;2022-12-31T13:30:12;11.87;;;7.23;;
6564;SDS011;3316;44.118;27.258;2022-12-31T13:32:51;12.93;;;8.50;;
6564;SDS011;3316;44.118;27.258;2022-12-31T13:35:32;10.57;;;8.07;;
6564;SDS011;3316;44.118;27.258;2022-12-31T13:41:04;18.73;;;12.33;;
6564;SDS011;3316;44.118;27.258;2022-12-31T13:43:53;13.17;;;7.80;;
6564;SDS011;3316;44.118;27.258;2022-12-31T13:48:53;15.70;;;10.17;;
6564;SDS011;3316;44.118;27.258;2022-12-31T13:57:19;20.80;;;13.17;;
6564;SDS011;3316;44.118;27.258;2022-12-31T13:59:59;17.93;;;12.70;;
6564;SDS011;3316;44.118;27.258;2022-12-31T14:02:36;24.20;;;14.73;;
6564;SDS011;3316;44.118;27.258;2022-12-31T14:05:45;23.30;;;14.57;;
6564;SDS011;3316;44.118;27.258;2022-12-31T14:08:19;21.70;;;13.73;;
6564;SDS011;3316;44.118;27.258;2022-12-31T14:21:27;30.67;;;17.53;;
6564;SDS011;3316;44.118;27.258;2022-12-31T14:27:10;30.20;;;17.87;;
6564;SDS011;3316;44.118;27.258;2022-12-31T14:29:51;29.03;;;15.80;;
6564;SDS011;3316;44.118;27.258;2022-12-31T14:35:35;20.27;;;13.00;;
6564;SDS011;3316;44.118;27.258;2022-12-31T14:41:05;40.67;;;23.37;;
6564;SDS011;3316;44.118;27.258;2022-12-31T14:51:40;37.37;;;20.70;;
6564;SDS011;3316;44.118;27.258;2022-12-31T14:54:21;50.07;;;24.73;;
6564;SDS011;3316;44.118;27.258;2022-12-31T14:56:50;48.37;;;28.60;;
6564;SDS011;3316;44.118;27.258;2022-12-31T14:59:26;71.57;;;38.10;;
6564;SDS011;3316;44.118;27.258;2022-12-31T15:01:54;132.57;;;66.60;;
6564;SDS011;3316;44.118;27.258;2022-12-31T15:04:41;95.07;;;51.87;;
6564;SDS011;3316;44.118;27.258;2022-12-31T15:07:20;97.77;;;51.13;;
6564;SDS011;3316;44.118;27.258;2022-12-31T15:09:56;103.47;;;53.10;;
6564;SDS011;3316;44.118;27.258;2022-12-31T15:15:26;103.90;;;54.17;;
6564;SDS011;3316;44.118;27.258;2022-12-31T15:21:40;80.57;;;42.10;;
6564;SDS011;3316;44.118;27.258;2022-12-31T15:24:29;63.40;;;32.53;;
6564;SDS011;3316;44.118;27.258;2022-12-31T15:27:04;76.77;;;41.13;;
6564;SDS011;3316;44.118;27.258;2022-12-31T15:29:44;91.77;;;48.63;;
6564;SDS011;3316;44.118;27.258;2022-12-31T15:32:16;106.77;;;51.37;;
6564;SDS011;3316;44.118;27.258;2022-12-31T15:34:44;103.17;;;49.53;;
6564;SDS011;3316;44.118;27.258;2022-12-31T15:45:31;63.10;;;34.80;;
6564;SDS011;3316;44.118;27.258;2022-12-31T15:48:04;64.27;;;35.13;;
6564;SDS011;3316;44.118;27.258;2022-12-31T15:50:33;64.97;;;35.60;;
6564;SDS011;3316;44.118;27.258;2022-12-31T15:53:02;38.90;;;24.03;;
6564;SDS011;3316;44.118;27.258;2022-12-31T15:57:55;64.80;;;37.07;;
6564;SDS011;3316;44.118;27.258;2022-12-31T16:00:26;62.50;;;33.97;;
6564;SDS011;3316;44.118;27.258;2022-12-31T16:03:16;58.80;;;29.97;;
6564;SDS011;3316;44.118;27.258;2022-12-31T16:05:47;80.80;;;41.60;;
6564;SDS011;3316;44.118;27.258;2022-12-31T16:08:18;105.30;;;47.43;;
6564;SDS011;3316;44.118;27.258;2022-12-31T16:10:45;104.67;;;48.77;;
6564;SDS011;3316;44.118;27.258;2022-12-31T16:13:21;111.83;;;56.63;;
6564;SDS011;3316;44.118;27.258;2022-12-31T16:15:52;90.77;;;43.93;;
6564;SDS011;3316;44.118;27.258;2022-12-31T16:18:37;86.10;;;41.80;;
6564;SDS011;3316;44.118;27.258;2022-12-31T16:21:04;100.60;;;48.03;;
6564;SDS011;3316;44.118;27.258;2022-12-31T16:23:30;88.30;;;43.77;;
6564;SDS011;3316;44.118;27.258;2022-12-31T16:25:56;96.20;;;49.03;;
6564;SDS011;3316;44.118;27.258;2022-12-31T16:28:27;86.80;;;45.53;;
6564;SDS011;3316;44.118;27.258;2022-12-31T16:30:56;77.43;;;38.40;;
6564;SDS011;3316;44.118;27.258;2022-12-31T16:33:25;54.10;;;28.83;;
6564;SDS011;3316;44.118;27.258;2022-12-31T16:35:54;42.27;;;23.53;;
6564;SDS011;3316;44.118;27.258;2022-12-31T16:38:21;31.27;;;19.30;;
6564;SDS011;3316;44.118;27.258;2022-12-31T16:43:37;38.17;;;22.80;;
6564;SDS011;3316;44.118;27.258;2022-12-31T16:46:09;30.83;;;18.30;;
6564;SDS011;3316;44.118;27.258;2022-12-31T16:48:35;33.60;;;17.87;;
6564;SDS011;3316;44.118;27.258;2022-12-31T16:51:02;35.07;;;19.80;;
6564;SDS011;3316;44.118;27.258;2022-12-31T16:53:28;37.37;;;21.30;;
6564;SDS011;3316;44.118;27.258;2022-12-31T16:56:02;37.10;;;21.53;;
6564;SDS011;3316;44.118;27.258;2022-12-31T16:58:33;34.90;;;19.70;;
6564;SDS011;3316;44.118;27.258;2022-12-31T17:03:32;45.93;;;24.67;;
6564;SDS011;3316;44.118;27.258;2022-12-31T17:11:02;38.10;;;21.27;;
6564;SDS011;3316;44.118;27.258;2022-12-31T17:13:35;44.23;;;22.83;;
6564;SDS011;3316;44.118;27.258;2022-12-31T17:16:00;28.93;;;15.80;;
6564;SDS011;3316;44.118;27.258;2022-12-31T17:18:29;23.47;;;14.47;;
6564;SDS011;3316;44.118;27.258;2022-12-31T17:21:08;25.70;;;14.37;;
6564;SDS011;3316;44.118;27.258;2022-12-31T17:23:35;25.53;;;15.57;;
6564;SDS011;3316;44.118;27.258;2022-12-31T17:26:08;28.20;;;16.00;;
6564;SDS011;3316;44.118;27.258;2022-12-31T17:31:28;28.30;;;15.60;;
6564;SDS011;3316;44.118;27.258;2022-12-31T17:36:36;36.93;;;20.07;;
6564;SDS011;3316;44.118;27.258;2022-12-31T17:39:20;45.77;;;26.73;;
6564;SDS011;3316;44.118;27.258;2022-12-31T17:41:48;43.20;;;25.93;;
6564;SDS011;3316;44.118;27.258;2022-12-31T17:44:20;43.23;;;25.83;;
6564;SDS011;3316;44.118;27.258;2022-12-31T17:46:50;49.10;;;27.20;;
6564;SDS011;3316;44.118;27.258;2022-12-31T17:49:16;42.47;;;23.20;;
6564;SDS011;3316;44.118;27.258;2022-12-31T17:51:53;35.60;;;19.97;;
6564;SDS011;3316;44.118;27.258;2022-12-31T17:54:19;37.80;;;19.77;;
6564;SDS011;3316;44.118;27.258;2022-12-31T17:56:44;34.17;;;20.50;;
6564;SDS011;3316;44.118;27.258;2022-12-31T17:59:14;32.90;;;20.03;;
6564;SDS011;3316;44.118;27.258;2022-12-31T18:01:41;30.40;;;17.17;;
6564;SDS011;3316;44.118;27.258;2022-12-31T18:04:17;30.13;;;17.43;;
6564;SDS011;3316;44.118;27.258;2022-12-31T18:06:44;24.63;;;15.40;;
6564;SDS011;3316;44.118;27.258;2022-12-31T18:09:10;27.27;;;16.40;;
6564;SDS011;3316;44.118;27.258;2022-12-31T18:11:36;31.30;;;18.80;;
6564;SDS011;3316;44.118;27.258;2022-12-31T18:14:02;30.03;;;18.37;;
6564;SDS011;3316;44.118;27.258;2022-12-31T18:16:28;26.83;;;17.50;;
6564;SDS011;3316;44.118;27.258;2022-12-31T18:18:55;24.10;;;15.60;;
6564;SDS011;3316;44.118;27.258;2022-12-31T18:23:48;24.37;;;15.43;;
6564;SDS011;3316;44.118;27.258;2022-12-31T18:26:16;29.90;;;18.80;;
6564;SDS011;3316;44.118;27.258;2022-12-31T18:28:44;26.70;;;17.20;;
6564;SDS011;3316;44.118;27.258;2022-12-31T18:31:20;24.83;;;15.20;;
6564;SDS011;3316;44.118;27.258;2022-12-31T18:33:48;30.30;;;17.77;;
6564;SDS011;3316;44.118;27.258;2022-12-31T18:36:15;24.80;;;17.00;;
6564;SDS011;3316;44.118;27.258;2022-12-31T18:38:42;24.43;;;16.67;;
6564;SDS011;3316;44.118;27.258;2022-12-31T18:41:26;28.53;;;17.47;;
6564;SDS011;3316;44.118;27.258;2022-12-31T18:44:00;25.20;;;15.37;;
6564;SDS011;3316;44.118;27.258;2022-12-31T18:46:25;23.50;;;14.40;;
6564;SDS011;3316;44.118;27.258;2022-12-31T18:48:51;19.37;;;12.87;;
6564;SDS011;3316;44.118;27.258;2022-12-31T18:51:18;27.57;;;15.23;;
6564;SDS011;3316;44.118;27.258;2022-12-31T18:53:45;26.47;;;14.63;;
6564;SDS011;3316;44.118;27.258;2022-12-31T18:56:12;27.63;;;15.83;;
6564;SDS011;3316;44.118;27.258;2022-12-31T18:58:40;25.83;;;16.13;;
6564;SDS011;3316;44.118;27.258;2022-12-31T19:04:03;24.17;;;15.07;;
6564;SDS011;3316;44.118;27.258;2022-12-31T19:06:43;27.60;;;16.73;;
6564;SDS011;3316;44.118;27.258;2022-12-31T19:09:09;22.40;;;14.40;;
6564;SDS011;3316;44.118;27.258;2022-12-31T19:11:36;25.60;;;14.03;;
6564;SDS011;3316;44.118;27.258;2022-12-31T19:14:22;26.37;;;15.33;;
6564;SDS011;3316;44.118;27.258;2022-12-31T19:16:49;23.07;;;14.60;;
6564;SDS011;3316;44.118;27.258;2022-12-31T19:19:15;31.37;;;16.17;;
6564;SDS011;3316;44.118;27.258;2022-12-31T19:21:42;22.40;;;13.73;;
6564;SDS011;3316;44.118;27.258;2022-12-31T19:24:15;21.57;;;13.80;;
6564;SDS011;3316;44.118;27.258;2022-12-31T19:26:43;26.30;;;13.93;;
6564;SDS011;3316;44.118;27.258;2022-12-31T19:29:18;19.23;;;12.70;;
6564;SDS011;3316;44.118;27.258;2022-12-31T19:31:44;19.67;;;11.57;;
6564;SDS011;3316;44.118;27.258;2022-12-31T19:34:10;21.30;;;11.70;;
6564;SDS011;3316;44.118;27.258;2022-12-31T19:36:36;19.93;;;12.63;;
6564;SDS011;3316;44.118;27.258;2022-12-31T19:39:02;21.93;;;13.10;;
6564;SDS011;3316;44.118;27.258;2022-12-31T19:41:29;18.73;;;12.07;;
6564;SDS011;3316;44.118;27.258;2022-12-31T19:43:55;20.00;;;13.00;;
6564;SDS011;3316;44.118;27.258;2022-12-31T19:46:21;22.00;;;14.13;;
6564;SDS011;3316;44.118;27.258;2022-12-31T19:48:48;25.57;;;14.03;;
6564;SDS011;3316;44.118;27.258;2022-12-31T19:51:15;20.40;;;13.77;;
6564;SDS011;3316;44.118;27.258;2022-12-31T19:53:43;20.00;;;12.23;;
6564;SDS011;3316;44.118;27.258;2022-12-31T19:56:13;24.67;;;14.03;;
6564;SDS011;3316;44.118;27.258;2022-12-31T19:58:41;19.80;;;12.17;;
6564;SDS011;3316;44.118;27.258;2022-12-31T20:01:07;20.97;;;12.83;;
6564;SDS011;3316;44.118;27.258;2022-12-31T20:03:44;18.93;;;11.87;;
6564;SDS011;3316;44.118;27.258;2022-12-31T20:06:09;19.53;;;12.17;;
6564;SDS011;3316;44.118;27.258;2022-12-31T20:08:35;24.03;;;13.83;;